Airport Name : Charleston Afb Intl

Other Name : Charleston

ICAO : KCHS

IATA : CHS

FAA : CHS

Latitude : 32.898647

Longitude : -80.040528

Country : United States

Local Date and Time : 06 Mar 2021 12:25

 

TAF (Terminal Aerodrome Forecast)

KCHS 061724Z 0618/0718 02010KT P6SM OVC040 TEMPO 0618/0621 -RA FM070200 VRB03KT P6SM BKN080 FM071300 36009KT P6SM SKC

 

METAR (METeorological Aerodrome Report)

KCHS 061656Z 01008KT 10SM -RA BKN045 OVC050 09/M03 A3024 RMK AO2 RAB46 SLP240 P0000 T00891033

KCHS 061556Z 04007KT 10SM OVC055 08/M04 A3025 RMK AO2 RAE28 SLP242 P0000 T00831039

KCHS 061456Z 05007KT 10SM -RA SCT040 BKN050 OVC060 08/M02 A3021 RMK AO2 SLP230 P0000 60000 T00781017 50003

KCHS 061356Z 03010KT 10SM -RA SCT035 BKN045 OVC060 07/M01 A3022 RMK AO2 SLP232 P0000 T00721011

To Charter a Jet Click here.